North Rim, AZ (86052)

1:51 PM MST on December 06, 2016 (GMT -0700)
KAZGRAND3 | | Change Station

Elev 6991 ft 36.05 °N, 112.12 °W | Updated 16 seconds ago

Clear
Clear
42.4 °F
Feels Like 39 °F
N
6.0
Wind Variable Wind from SSW
Gusts 17.0 mph

Today
High -- | Low -- °F
--% Chance of Precip.
Yesterday
High -- | Low -- °F
Precip. -- in
Pressure 29.79 in
Visibility 10.0 miles
Clouds Clear
Windchill 39 °F
Dew Point 17 °F
Humidity 36%
Rainfall 0.00 in
Snow Depth Not available.
7:25 AM 5:13 PM
Waxing Crescent, 45% visible
METAR KGCN 061954Z 21017G23KT 10SM CLR 06/M07 A2985 RMK AO2 PK WND 23028/1920 SLP088 T00611067
Pressure 29.79 in
Visibility 10.0 miles
Clouds Clear
Windchill 39 °F
Dew Point 17 °F
Humidity 36%
Rainfall 0.00 in
Snow Depth Not available.
7:25 AM 5:13 PM
Waxing Crescent, 45% visible
METAR KGCN 061954Z 21017G23KT 10SM CLR 06/M07 A2985 RMK AO2 PK WND 23028/1920 SLP088 T00611067

10-Day Weather Forecast

Almanac

Astronomy

Dec. 06, 2016 Rise Set
Actual Time
Civil Twilight
Nautical Twilight
Astronomical Twilight
Moon
Length of Visible Light
Length of Day
Tomorrow will be .
, % of the Moon is Illuminated

Today's Extremes

State Highs State Lows

Community

WunderPhotos

Upload Photos

1,956,024 photos uploaded!

WunderBlog® & News

Nearby

Air Quality

  Air Quality AQ Index Pollutant
Not available.

Snow Depth

Station Depth Elevation

Earthquake Activity

City Distance Mag. Time & Date
Minimum magnitude displayed is 2.5.

Coastal Water Temperatures

Place Temperature

Stations

Nearby Weather Stations

Station Location Temp. Windchill Dew Point Humidity Wind Precip. Elev Updated Type
                   

Watches & Warnings

There are currently no watches in effect.